METAR Data
IDs: Format: Raw Decoded Include TAF

Data at: 0558 UTC 24 Sep 2018

KDAN 240553Z AUTO 04009KT 10SM OVC004 17/16 A3022 RMK AO2 SLP224 T01720161 10178 20167 50001
KDAN 240453Z AUTO 05006KT 5SM BR OVC004 17/17 A3022 RMK AO2 SLP225 T01670167 401890167
KDAN 240444Z AUTO 04007KT 5SM BR OVC004 17/17 A3022 RMK AO2 T01670167
KDAN 240353Z AUTO 04007KT 10SM OVC005 17/16 A3022 RMK AO2 SLP225 T01720161
KDAN 240253Z AUTO 04006KT 10SM OVC006 17/16 A3021 RMK AO2 SLP223 T01720161 51016
KDAN 240153Z AUTO 06007KT 10SM OVC006 17/16 A3021 RMK AO2 SLP221 T01720161
KDAN 240053Z AUTO 05006KT 10SM OVC008 17/16 A3019 RMK AO2 SLP214 T01720161
KDAN 232353Z AUTO 04009KT 10SM OVC008 18/17 A3017 RMK AO2 SLP207 T01780167 10189 20178 53003
KDAN 232253Z AUTO 03005KT 10SM OVC009 18/17 A3016 RMK AO2 SLP204 T01830167
KDAN 232239Z AUTO 03006KT 10SM OVC009 18/17 A3015 RMK AO2 T01830167
KDAN 232210Z AUTO 04006KT 10SM OVC010 19/17 A3015 RMK AO2 T01890167
KDAN 232153Z AUTO 03005KT 10SM OVC009 19/17 A3016 RMK AO2 SLP203 T01890167
KDAN 232148Z AUTO 04006KT 10SM OVC009 19/17 A3016 RMK AO2 CIG 009V013
KDAN 232053Z AUTO 05006KT 10SM OVC010 19/17 A3015 RMK AO2 SLP201 T01890167 55007
KDAN 232020Z AUTO 03004KT 10SM OVC010 19/17 A3015 RMK AO2 T01890167
KDAN 231953Z AUTO 05006KT 10SM OVC009 19/17 A3015 RMK AO2 SLP200 T01890167
KDAN 231853Z AUTO 02005KT 10SM OVC008 19/17 A3016 RMK AO2 SLP205 T01890167
KDAN 231753Z AUTO 03006KT 10SM OVC006 18/17 A3017 RMK AO2 SLP209 T01780167 10183 20167 58006
KDAN 231653Z AUTO 04005KT 10SM OVC006 18/16 A3018 RMK AO2 SLP213 T01780161
KDAN 231553Z AUTO 04004KT 6SM BR OVC005 17/17 A3018 RMK AO2 SLP213 T01720167
KDAN 231540Z AUTO 03005KT 6SM BR OVC005 17/16 A3019 RMK AO2 T01720161
KDAN 231529Z AUTO 04007KT 6SM BR OVC004 17/17 A3019 RMK AO2 T01720167 $
KDAN 231518Z AUTO 06007KT 9SM OVC005 17/17 A3019 RMK AO2 T01720167 $
KDAN 231453Z AUTO 06004KT 5SM BR BKN004 OVC008 17/17 A3019 RMK AO2 SLP214 T01720167 51012 $
KDAN 231437Z AUTO 04006KT 9SM OVC006 17/17 A3018 RMK AO2 CIG 003V010 T01720167 $
KDAN 231412Z AUTO 03006KT 4SM BR OVC004 17/17 A3018 RMK AO2 T01670167 $
KDAN 231353Z AUTO 01005KT 2SM BR OVC004 17/17 A3017 RMK AO2 SLP209 T01670167 $
KDAN 231351Z AUTO 02005KT 2SM BR OVC004 17/17 A3017 RMK AO2 $
KDAN 231253Z AUTO 03007KT 4SM BR OVC003 17/17 A3015 RMK AO2 SLP202 T01670167 $
KDAN 231232Z AUTO 03006KT 3SM BR OVC003 17/17 A3015 RMK AO2 T01670167 $
KDAN 231201Z AUTO 03006KT 2SM BR OVC003 17/17 A3015 RMK AO2 T01670167 $
KDAN 231153Z AUTO 03007KT 1 3/4SM BR OVC003 17/17 A3014 RMK AO2 SLP198 70191 T01670167 10178 20167 53006 $
KDAN 231141Z AUTO 01007KT 2SM BR OVC003 17/17 A3014 RMK AO2 T01670167 $
KDAN 231053Z AUTO 03006KT 5SM BR OVC003 17/17 A3014 RMK AO2 SLP195 T01720172 $
KDAN 230953Z AUTO 03006KT 8SM OVC003 17/ A3013 RMK AO2 SLP191 T0172 $
KDAN 230853Z AUTO 02006KT 10SM OVC004 18/ A3013 RMK AO2 SLP190 T0178 55001 $
KDAN 230837Z AUTO 02006KT 10SM OVC004 18/ A3013 RMK AO2 T0178 $
KDAN 230825Z AUTO 03005KT 10SM OVC005 18/ A3012 RMK AO2 T0178 $
KDAN 230810Z AUTO 03006KT 10SM OVC004 18/ A3012 RMK AO2 T0178 $
KDAN 230753Z AUTO 02004KT 10SM OVC005 18/ A3012 RMK AO2 SLP189 T0178 $
KDAN 230653Z AUTO 04004KT 10SM OVC005 18/ A3012 RMK AO2 SLP189 T0178 $
KDAN 230553Z AUTO 05006KT 10SM OVC006 18/ A3013 RMK AO2 SLP191 60191 T0178 10261 20178 50000 $
KDAN 230532Z AUTO 04007KT 10SM BKN005 BKN047 18/ A3013 RMK AO2 T0178 $
KDAN 230500Z AUTO 06008G15KT 10SM FEW006 BKN040 OVC060 18/ A3013 RMK AO2 T0178 $
KDAN 230453Z AUTO 06012KT 10SM FEW006 BKN025 OVC040 18/ A3013 RMK AO2 RAE51 SLP192 P0037 T0178 403110178 $
KDAN 230446Z AUTO 06007KT 8SM -RA SCT006 BKN020 OVC040 18/ A3013 RMK AO2 P0037 T0178 $
KDAN 230436Z AUTO 06011G20KT 2SM +RA FEW004 BKN020 OVC025 18/ A3013 RMK AO2 P0037 T0178 $
KDAN 230428Z AUTO 05013KT 1 3/4SM +RA BKN006 BKN020 OVC045 18/ A3013 RMK AO2 P0025 T0178 $
KDAN 230353Z AUTO 03011KT 4SM -RA FEW004 BKN025 OVC040 18/ A3013 RMK AO2 SLP193 P0052 T0178 $
KDAN 230340Z AUTO 04009KT 2 1/2SM +RA FEW006 BKN025 OVC039 18/ A3014 RMK AO2 LTG DSNT NE AND E P0042 T0178 $
KDAN 230335Z AUTO 04011G18KT 4SM RA FEW006 SCT027 OVC041 18/ A3014 RMK AO2 LTG DSNT N-E P0030 T0178 $
KDAN 230326Z AUTO 05013KT 3SM +RA FEW028 OVC039 18/ A3013 RMK AO2 LTG DSNT N-E P0024 T0178 $
KDAN 230306Z AUTO 05016G22KT 10SM VCTS -RA FEW021 SCT026 OVC038 18/ A3013 RMK AO2 LTG DSNT E P0001 T0183 $
KDAN 230253Z AUTO 04013KT 9SM VCTS -RA FEW010 BKN026 OVC039 19/ A3013 RMK AO2 PK WND 03026/0227 WSHFT 0220 LTG DSNT E AND NW RAB22 TSB34E52 SLP191 P0015 60102 T0189 51026 $
KDAN 230238Z AUTO 02013G26KT 10SM -TSRA SCT008 OVC021 19/ A3013 RMK AO2 PK WND 03026/0227 WSHFT 0220 LTG DSNT N AND E RAB22 TSB34 P0009 T0189 $
KDAN 230228Z AUTO 03021G26KT 6SM VCTS +RA BKN008 OVC014 19/ A3012 RMK AO2 PK WND 03026/0227 WSHFT 0208 LTG DSNT NW-E RAB22 P0007 T0189 $
KDAN 230211Z AUTO 36016G23KT 10SM VCTS BKN006 OVC015 20/ A3010 RMK AO2 WSHFT 0157 LTG DSNT ALQDS CIG 005V009 T0200 $
KDAN 230203Z AUTO 02011G20KT 10SM VCTS SCT006 BKN015 OVC045 22/ A3010 RMK AO2 LTG DSNT ALQDS CIG 009V024 T0217 $
KDAN 230153Z AUTO 06005KT 10SM VCTS FEW010 BKN020 OVC045 23/ A3009 RMK AO2 LTG DSNT ALQDS RAE41 TSB09E43 SLP179 P0043 T0233 $
KDAN 230149Z AUTO 05006KT 10SM VCTS FEW008 BKN020 OVC045 23/ A3009 RMK AO2 LTG DSNT ALQDS RAE41 TSB09E43 P0043 $
KDAN 230135Z AUTO 00000KT 7SM -TSRA FEW007 BKN020 OVC026 24/ A3007 RMK AO2 LTG DSNT ALQDS TSB09 P0043 T0239 $
KDAN 230127Z AUTO VRB06KT 3SM TSRA BKN020 BKN026 OVC037 24/ A3007 RMK AO2 LTG DSNT W-NE TSB09 P0043 T0239 $
KDAN 230109Z AUTO VRB06KT 1 1/4SM +TSRA BR FEW005 BKN020 OVC048 24/24 A3006 RMK AO2 LTG DSNT N AND NW TSB09 P0019 T02390239 $
KDAN 230101Z AUTO VRB06KT 2SM RA BR FEW006 BKN022 OVC060 23/23 A3006 RMK AO2 LTG DSNT N AND NW P0007 T02330233
KDAN 230053Z AUTO 19007G15KT 2 1/2SM +RA BR FEW015 BKN025 OVC045 24/23 A3005 RMK AO2 LTG DSNT NW-NE RAB26 SLP166 P0044 T02390233
KDAN 230048Z AUTO 09008G15KT 1 1/4SM +RA BR BKN019 BKN031 OVC070 24/23 A3004 RMK AO2 LTG DSNT NW-NE RAB26 P0040
KDAN 230039Z AUTO 19005KT 1 1/2SM VCTS +RA BR SCT014 BKN022 BKN033 24/23 A3006 RMK AO2 LTG DSNT N AND SE AND NW RAB26 P0023 T02440228
KDAN 230029Z AUTO VRB04KT 10SM VCTS -RA SCT034 SCT055 BKN080 26/22 A3006 RMK AO2 LTG DSNT N AND SE AND NW RAB26 P0000 T02560222
KDAN 222353Z AUTO 11004KT 10SM SCT048 BKN060 BKN080 26/22 A3004 RMK AO2 LTG DSNT N AND NW SLP162 T02610222 10311 20261 50000
KDAN 222253Z AUTO 08004KT 10SM SCT044 27/22 A3004 RMK AO2 SLP163 T02670222
KDAN 222153Z AUTO VRB06KT 10SM CLR 29/22 A3004 RMK AO2 SLP160 T02890222
KDAN 222053Z AUTO 09005KT 10SM CLR 30/22 A3004 RMK AO2 SLP161 T03000222 56015
KDAN 221953Z AUTO 11005KT 10SM CLR 30/21 A3005 RMK AO2 SLP163 T03000211
KDAN 221853Z AUTO 07005KT 10SM SCT041 BKN060 29/21 A3006 RMK AO2 SLP170 T02940211